< Typhoon 200612 2006 Season Typhoon 200614 >
Typhoon 200613 (SHANSHAN)
General InformationTrack Information on Google MapsDetailed Wind InformationAccess Analytics MapList of All Images || NewsDisaster Info.WeblogTrackbackTyphoon FrontResourceGoogle EarthGE AnimationAtom FeedGeoJSON
Detalied Best Track (Time Zone = UTC)
Year Month Day Hour Lat. Long. Pressure (hPa) Wind (kt) Class Image Chart
2006 9 9 00 13.3 138.7 1006 0 2 Image Chart
2006 9 9 06 13.8 138.2 1004 0 2 Image Chart
2006 9 9 12 14.3 137.4 1004 0 2 Image Chart
2006 9 9 18 15.0 136.8 1004 0 2 Image Chart
2006 9 10 00 15.5 136.1 1004 0 2 Image Chart
2006 9 10 06 16.3 135.1 1002 0 2 Image Chart
2006 9 10 12 16.8 134.8 998 35 3 Image Chart
2006 9 10 18 17.7 134.4 994 40 3 Image Chart
2006 9 11 00 18.1 134.0 990 50 4 Image Chart
2006 9 11 06 18.5 133.7 985 55 4 Image Chart
2006 9 11 12 18.8 133.2 975 65 5 Image Chart
2006 9 11 18 19.3 132.6 960 80 5 Image Chart
2006 9 12 00 19.4 132.1 950 85 5 Image Chart
2006 9 12 06 19.7 131.6 950 85 5 Image Chart
2006 9 12 12 20.1 131.0 950 85 5 Image Chart
2006 9 12 18 20.1 130.1 950 85 5 Image Chart
2006 9 13 00 20.1 129.0 950 85 5 Image Chart
2006 9 13 06 20.2 128.3 950 85 5 Image Chart
2006 9 13 12 20.3 127.6 950 85 5 Image Chart
2006 9 13 18 20.3 126.8 950 85 5 Image Chart
2006 9 14 00 20.3 126.1 950 85 5 Image Chart
2006 9 14 06 20.3 125.5 950 85 5 Image Chart
2006 9 14 12 20.4 125.0 950 85 5 Image Chart
2006 9 14 18 20.8 124.5 950 85 5 Image Chart
2006 9 14 21 21.2 124.4 945 90 5 Image Chart
2006 9 15 00 21.6 124.3 945 90 5 Image Chart
2006 9 15 03 21.8 124.1 940 90 5 Image Chart
2006 9 15 06 22.1 124.0 935 95 5 Image Chart
2006 9 15 09 22.6 124.0 930 100 5 Image Chart
2006 9 15 12 23.1 123.8 925 105 5 Image Chart
2006 9 15 15 23.6 123.8 919 110 5 Image Chart
2006 9 15 18 24.0 123.8 919 110 5 Image Chart
2006 9 15 20 24.3 123.9 919 110 5 Image Chart
2006 9 15 21 24.4 124.0 919 110 5 Image Chart
2006 9 16 00 24.9 124.2 925 105 5 Image Chart
2006 9 16 03 25.5 124.3 925 105 5 Image Chart
2006 9 16 06 26.0 124.8 925 105 5 Image Chart
2006 9 16 09 26.5 125.4 925 105 5 Image Chart
2006 9 16 12 27.1 125.9 930 100 5 Image Chart
2006 9 16 15 27.8 126.4 935 95 5 Image Chart
2006 9 16 18 28.6 127.1 945 85 5 Image Chart
2006 9 16 21 29.4 127.5 945 85 5 Image Chart
2006 9 17 00 30.3 128.0 945 85 5 Image Chart
2006 9 17 03 31.3 128.6 945 85 5 Image Chart
2006 9 17 06 32.1 129.1 950 80 5 Image Chart
2006 9 17 09 32.9 129.8 950 80 5 Image Chart
2006 9 17 12 34.0 130.4 965 70 5 Image Chart
2006 9 17 15 34.8 130.9 970 65 5 Image Chart
2006 9 17 18 35.8 131.4 975 60 5 Image Chart
2006 9 17 21 36.4 131.8 975 60 4 Image Chart
2006 9 18 00 37.1 132.4 980 55 4 Image Chart
2006 9 18 03 37.6 132.8 980 55 4 Image Chart
2006 9 18 06 38.4 133.4 985 50 4 Image Chart
2006 9 18 09 39.4 134.1 985 50 4 Image Chart
2006 9 18 12 40.1 134.6 986 0 6 Image Chart
2006 9 18 18 41.1 135.0 988 0 6 Image Chart
2006 9 19 00 41.9 135.6 990 0 6 Image Chart
2006 9 19 06 42.9 136.5 992 0 6 Image Chart
2006 9 19 12 43.7 138.3 992 0 6 Image Chart
2006 9 19 18 44.2 140.2 992 0 6 Image Chart
Japan Meteorological Agency Best Track Data | Correction Date : 2006-11-14
< Typhoon 200612 2006 Season Typhoon 200614 >

Help